Time,TemperatureF,DewpointF,PressureIn,WindDirection,WindDirectionDegrees,WindSpeedMPH,WindSpeedGustMPH,Humidity,HourlyPrecipIn,Conditions,Clouds,dailyrainin,SoftwareType,DateUTC
2013-11-28 00:02:00,37.3,27.3,30.41,NNE,23,0.0,0.0,67,0.00,CLR,,0.00,WeatherDisplay:10.37,2013-11-28 06:02:00,
2013-11-28 00:07:00,37.3,27.3,30.41,North,4,1.1,1.1,67,0.00,CLR,,0.00,WeatherDisplay:10.37,2013-11-28 06:07:00,
2013-11-28 00:12:00,37.3,27.0,30.41,North,1,0.0,0.0,66,0.00,CLR,,0.00,WeatherDisplay:10.37,2013-11-28 06:12:00,
2013-11-28 00:17:00,37.2,27.2,30.41,North,1,0.0,0.0,67,0.00,CLR,,0.00,WeatherDisplay:10.37,2013-11-28 06:17:00,
2013-11-28 00:22:00,37.0,27.8,30.41,NNW,337,0.0,0.0,69,0.00,CLR,,0.00,WeatherDisplay:10.37,2013-11-28 06:22:00,
2013-11-28 00:27:00,36.8,27.9,30.41,North,354,0.0,0.0,70,0.00,CLR,,0.00,WeatherDisplay:10.37,2013-11-28 06:27:00,
2013-11-28 00:32:00,36.7,27.8,30.42,NNW,340,0.0,0.0,70,0.00,CLR,,0.00,WeatherDisplay:10.37,2013-11-28 06:32:00,
2013-11-28 00:37:00,36.7,27.5,30.41,NNE,15,3.5,3.5,69,0.00,CLR,,0.00,WeatherDisplay:10.37,2013-11-28 06:37:00,
2013-11-28 00:42:00,36.8,27.9,30.41,North,8,2.3,2.3,70,0.00,CLR,,0.00,WeatherDisplay:10.37,2013-11-28 06:42:00,
2013-11-28 00:47:00,36.5,28.0,30.41,NNW,343,1.1,1.1,71,0.00,CLR,,0.00,WeatherDisplay:10.37,2013-11-28 06:47:00,
2013-11-28 00:52:00,36.0,27.8,30.41,NNW,342,0.0,0.0,72,0.00,CLR,,0.00,WeatherDisplay:10.37,2013-11-28 06:52:00,
2013-11-28 00:57:00,35.9,27.7,30.41,ENE,74,0.0,0.0,72,0.00,CLR,,0.00,WeatherDisplay:10.37,2013-11-28 06:57:00,
2013-11-28 01:02:00,35.5,27.7,30.40,ENE,74,0.0,0.0,73,0.00,CLR,,0.00,WeatherDisplay:10.37,2013-11-28 07:02:00,
2013-11-28 01:07:00,34.9,27.5,30.40,ENE,66,0.0,0.0,74,0.00,CLR,,0.00,WeatherDisplay:10.37,2013-11-28 07:07:00,
2013-11-28 01:12:00,35.1,27.6,30.40,NNE,15,0.0,0.0,74,0.00,CLR,,0.00,WeatherDisplay:10.37,2013-11-28 07:12:00,
2013-11-28 01:17:00,35.0,27.5,30.41,NNE,14,0.0,0.0,74,0.00,CLR,,0.00,WeatherDisplay:10.37,2013-11-28 07:17:00,
2013-11-28 01:22:00,34.7,27.6,30.41,NNE,15,0.0,0.0,75,0.00,CLR,,0.00,WeatherDisplay:10.37,2013-11-28 07:22:00,
2013-11-28 01:27:00,34.3,27.8,30.40,NNE,15,0.0,0.0,77,0.00,CLR,,0.00,WeatherDisplay:10.37,2013-11-28 07:27:00,
2013-11-28 01:32:00,33.5,27.7,30.40,NNE,15,0.0,0.0,79,0.00,CLR,,0.00,WeatherDisplay:10.37,2013-11-28 07:32:00,
2013-11-28 01:37:00,33.0,27.8,30.40,NNE,14,0.0,0.0,81,0.00,CLR,,0.00,WeatherDisplay:10.37,2013-11-28 07:37:00,
2013-11-28 01:42:00,32.5,27.6,30.41,NNE,15,0.0,0.0,82,0.00,CLR,,0.00,WeatherDisplay:10.37,2013-11-28 07:42:00,
2013-11-28 01:47:00,32.3,27.7,30.40,NNE,14,0.0,0.0,83,0.00,CLR,,0.00,WeatherDisplay:10.37,2013-11-28 07:47:00,
2013-11-28 01:52:00,32.8,28.5,30.40,NE,50,0.0,0.0,84,0.00,CLR,,0.00,WeatherDisplay:10.37,2013-11-28 07:52:00,
2013-11-28 01:57:00,34.0,28.5,30.40,NE,50,0.0,0.0,80,0.00,CLR,,0.00,WeatherDisplay:10.37,2013-11-28 07:57:00,
2013-11-28 02:02:00,34.2,28.4,30.40,NE,50,0.0,0.0,79,0.00,CLR,,0.00,WeatherDisplay:10.37,2013-11-28 08:02:00,
2013-11-28 02:07:00,34.5,28.3,30.40,NNE,25,0.0,0.0,78,0.00,CLR,,0.00,WeatherDisplay:10.37,2013-11-28 08:07:00,
2013-11-28 02:12:00,34.8,28.3,30.40,NNE,13,2.3,2.3,77,0.00,CLR,,0.00,WeatherDisplay:10.37,2013-11-28 08:12:00,
2013-11-28 02:17:00,34.7,28.2,30.40,NNE,33,2.3,2.3,77,0.00,CLR,,0.00,WeatherDisplay:10.37,2013-11-28 08:17:00,
2013-11-28 02:22:00,34.4,28.2,30.40,North,359,1.1,1.1,78,0.00,CLR,,0.00,WeatherDisplay:10.37,2013-11-28 08:22:00,
2013-11-28 02:27:00,34.3,28.5,30.40,NNE,30,0.0,0.0,79,0.00,CLR,,0.00,WeatherDisplay:10.37,2013-11-28 08:27:00,
2013-11-28 02:32:00,34.1,28.6,30.40,NNE,20,0.0,0.0,80,0.00,CLR,,0.00,WeatherDisplay:10.37,2013-11-28 08:32:00,
2013-11-28 02:37:00,33.9,28.7,30.40,NNE,20,0.0,0.0,81,0.00,CLR,,0.00,WeatherDisplay:10.37,2013-11-28 08:37:00,
2013-11-28 02:42:00,33.5,28.3,30.40,NNE,20,0.0,0.0,81,0.00,CLR,,0.00,WeatherDisplay:10.37,2013-11-28 08:42:00,
2013-11-28 02:47:00,32.8,27.9,30.40,WNW,302,0.0,0.0,82,0.00,CLR,,0.00,WeatherDisplay:10.37,2013-11-28 08:47:00,
2013-11-28 02:52:00,32.1,28.1,30.40,WNW,302,0.0,0.0,85,0.00,CLR,,0.00,WeatherDisplay:10.37,2013-11-28 08:52:00,
2013-11-28 02:57:00,31.9,28.5,30.40,WNW,302,0.0,0.0,87,0.00,CLR,,0.00,WeatherDisplay:10.37,2013-11-28 08:57:00,
2013-11-28 03:02:00,32.1,28.9,30.39,NW,316,0.0,0.0,88,0.00,CLR,,0.00,WeatherDisplay:10.37,2013-11-28 09:02:00,
2013-11-28 03:07:00,32.6,29.2,30.39,NNW,340,0.0,0.0,87,0.00,CLR,,0.00,WeatherDisplay:10.37,2013-11-28 09:07:00,
2013-11-28 03:12:00,33.0,29.0,30.38,NNE,18,1.0,1.0,85,0.00,CLR,,0.00,WeatherDisplay:10.37,2013-11-28 09:12:00,
2013-11-28 03:17:00,33.4,28.8,30.38,NNE,13,1.1,1.1,83,0.00,CLR,,0.00,WeatherDisplay:10.37,2013-11-28 09:17:00,
2013-11-28 03:22:00,33.6,28.4,30.39,North,4,0.0,0.0,81,0.00,CLR,,0.00,WeatherDisplay:10.37,2013-11-28 09:22:00,
2013-11-28 03:27:00,33.6,28.4,30.38,NNE,15,1.1,1.1,81,0.00,CLR,,0.00,WeatherDisplay:10.37,2013-11-28 09:27:00,
2013-11-28 03:32:00,33.7,28.2,30.38,NNE,23,2.3,2.3,80,0.00,CLR,,0.00,WeatherDisplay:10.37,2013-11-28 09:32:00,
2013-11-28 03:37:00,33.8,28.0,30.38,NNE,18,0.0,0.0,79,0.00,CLR,,0.00,WeatherDisplay:10.37,2013-11-28 09:37:00,
2013-11-28 03:42:00,33.7,28.2,30.39,NNE,18,0.0,0.0,80,0.00,CLR,,0.00,WeatherDisplay:10.37,2013-11-28 09:42:00,
2013-11-28 03:47:00,33.6,28.1,30.40,NNW,334,0.0,0.0,80,0.00,CLR,,0.00,WeatherDisplay:10.37,2013-11-28 09:47:00,
2013-11-28 03:52:00,33.5,28.6,30.40,WNW,290,2.3,2.3,82,0.00,CLR,,0.00,WeatherDisplay:10.37,2013-11-28 09:52:00,
2013-11-28 03:57:00,33.3,28.7,30.40,WNW,294,2.3,2.3,83,0.00,CLR,,0.00,WeatherDisplay:10.37,2013-11-28 09:57:00,
2013-11-28 04:02:00,33.3,29.0,30.40,NW,308,3.5,3.5,84,0.00,CLR,,0.00,WeatherDisplay:10.37,2013-11-28 10:02:00,
2013-11-28 04:07:00,33.4,29.1,30.40,WNW,288,3.5,3.5,84,0.00,CLR,,0.00,WeatherDisplay:10.37,2013-11-28 10:07:00,
2013-11-28 04:12:00,33.5,29.2,30.40,WNW,284,3.0,3.0,84,0.00,CLR,,0.00,WeatherDisplay:10.37,2013-11-28 10:12:00,
2013-11-28 04:17:00,33.4,29.1,30.40,NW,308,0.0,0.0,84,0.00,CLR,,0.00,WeatherDisplay:10.37,2013-11-28 10:17:00,
2013-11-28 04:22:00,33.2,28.9,30.40,WNW,285,0.0,0.0,84,0.00,CLR,,0.00,WeatherDisplay:10.37,2013-11-28 10:22:00,
2013-11-28 04:27:00,33.0,29.0,30.39,NNW,336,1.1,1.1,85,0.00,CLR,,0.00,WeatherDisplay:10.37,2013-11-28 10:27:00,
2013-11-28 04:32:00,32.9,29.2,30.40,NW,325,1.1,1.1,86,0.00,CLR,,0.00,WeatherDisplay:10.37,2013-11-28 10:32:00,
2013-11-28 04:37:00,32.9,29.2,30.40,NW,323,0.0,0.0,86,0.00,CLR,,0.00,WeatherDisplay:10.37,2013-11-28 10:37:00,
2013-11-28 04:42:00,32.9,29.2,30.40,West,269,0.0,0.0,86,0.00,CLR,,0.00,WeatherDisplay:10.37,2013-11-28 10:42:00,
2013-11-28 04:47:00,32.8,29.1,30.41,WNW,288,3.5,3.5,86,0.00,CLR,,0.00,WeatherDisplay:10.37,2013-11-28 10:47:00,
2013-11-28 04:52:00,32.7,29.0,30.41,WNW,302,2.3,2.3,86,0.00,CLR,,0.00,WeatherDisplay:10.37,2013-11-28 10:52:00,
2013-11-28 04:57:00,32.8,29.1,30.41,NNW,330,2.3,2.3,86,0.00,CLR,,0.00,WeatherDisplay:10.37,2013-11-28 10:57:00,
2013-11-28 05:02:00,33.0,29.0,30.41,West,274,1.1,1.1,85,0.00,CLR,,0.00,WeatherDisplay:10.37,2013-11-28 11:02:00,
2013-11-28 05:07:00,33.1,29.1,30.41,WNW,285,2.3,2.3,85,0.00,CLR,,0.00,WeatherDisplay:10.37,2013-11-28 11:07:00,
2013-11-28 05:12:00,32.9,28.9,30.42,WSW,238,1.1,1.1,85,0.00,CLR,,0.00,WeatherDisplay:10.37,2013-11-28 11:12:00,
2013-11-28 05:17:00,32.7,28.7,30.41,WNW,301,1.1,1.1,85,0.00,CLR,,0.00,WeatherDisplay:10.37,2013-11-28 11:17:00,
2013-11-28 05:22:00,33.1,28.5,30.41,WNW,293,3.5,3.5,83,0.00,CLR,,0.00,WeatherDisplay:10.37,2013-11-28 11:22:00,
2013-11-28 05:27:00,33.5,28.6,30.41,NW,315,3.5,3.5,82,0.00,CLR,,0.00,WeatherDisplay:10.37,2013-11-28 11:27:00,
2013-11-28 05:32:00,33.4,28.5,30.41,NNW,330,1.1,1.1,82,0.00,CLR,,0.00,WeatherDisplay:10.37,2013-11-28 11:32:00,
2013-11-28 05:37:00,33.1,28.2,30.41,SE,126,0.0,0.1,82,0.00,CLR,,0.00,WeatherDisplay:10.37,2013-11-28 11:37:00,
2013-11-28 05:42:00,32.6,28.3,30.41,East,101,1.1,1.1,84,0.00,CLR,,0.00,WeatherDisplay:10.37,2013-11-28 11:42:00,
2013-11-28 05:47:00,32.3,28.3,30.41,ESE,102,1.1,1.1,85,0.00,CLR,,0.00,WeatherDisplay:10.37,2013-11-28 11:47:00,
2013-11-28 05:52:00,32.1,28.1,30.41,North,1,2.3,2.3,85,0.00,CLR,,0.00,WeatherDisplay:10.37,2013-11-28 11:52:00,
2013-11-28 05:57:00,32.0,28.3,30.42,North,4,1.1,1.1,86,0.00,CLR,,0.00,WeatherDisplay:10.37,2013-11-28 11:57:00,
2013-11-28 06:02:00,32.2,28.5,30.42,North,5,0.0,0.0,86,0.00,CLR,,0.00,WeatherDisplay:10.37,2013-11-28 12:02:00,
2013-11-28 06:07:00,32.1,28.1,30.42,North,5,0.0,0.0,85,0.00,CLR,,0.00,WeatherDisplay:10.37,2013-11-28 12:07:00,
2013-11-28 06:12:00,32.0,28.3,30.42,North,5,0.0,0.0,86,0.00,CLR,,0.00,WeatherDisplay:10.37,2013-11-28 12:12:00,
2013-11-28 06:17:00,32.3,28.3,30.42,North,5,0.0,0.0,85,0.00,CLR,,0.00,WeatherDisplay:10.37,2013-11-28 12:17:00,
2013-11-28 06:22:00,32.3,28.3,30.42,North,5,0.0,0.0,85,0.00,CLR,,0.00,WeatherDisplay:10.37,2013-11-28 12:22:00,
2013-11-28 06:27:00,32.2,28.5,30.42,North,5,0.0,0.0,86,0.00,CLR,,0.00,WeatherDisplay:10.37,2013-11-28 12:27:00,
2013-11-28 06:32:00,31.9,28.2,30.42,North,5,0.0,0.0,86,0.00,CLR,,0.00,WeatherDisplay:10.37,2013-11-28 12:32:00,
2013-11-28 06:37:00,32.0,28.3,30.42,North,5,0.0,0.0,86,0.00,CLR,,0.00,WeatherDisplay:10.37,2013-11-28 12:37:00,
2013-11-28 06:42:00,31.9,28.5,30.43,North,5,0.0,0.0,87,0.00,CLR,,0.00,WeatherDisplay:10.37,2013-11-28 12:42:00,
2013-11-28 06:47:00,31.7,28.3,30.43,North,5,0.0,0.0,87,0.00,CLR,,0.00,WeatherDisplay:10.37,2013-11-28 12:47:00,
2013-11-28 06:52:00,31.5,28.4,30.43,North,5,0.0,0.0,88,0.00,CLR,,0.00,WeatherDisplay:10.37,2013-11-28 12:52:00,
2013-11-28 06:57:00,31.4,28.5,30.44,North,5,0.0,0.0,89,0.00,CLR,,0.00,WeatherDisplay:10.37,2013-11-28 12:57:00,
2013-11-28 07:02:00,31.6,29.0,30.44,WNW,301,2.3,2.3,90,0.00,CLR,,0.00,WeatherDisplay:10.37,2013-11-28 13:02:00,
2013-11-28 07:07:00,32.0,29.4,30.44,WNW,300,0.0,0.0,90,0.00,CLR,,0.00,WeatherDisplay:10.37,2013-11-28 13:07:00,
2013-11-28 07:12:00,32.0,29.1,30.44,WNW,300,0.0,0.0,89,0.00,CLR,,0.00,WeatherDisplay:10.37,2013-11-28 13:12:00,
2013-11-28 07:17:00,31.9,29.0,30.44,WNW,300,0.0,0.0,89,0.00,CLR,,0.00,WeatherDisplay:10.37,2013-11-28 13:17:00,
2013-11-28 07:22:00,32.0,29.1,30.44,WNW,301,0.0,0.0,89,0.00,CLR,,0.00,WeatherDisplay:10.37,2013-11-28 13:22:00,
2013-11-28 07:27:00,32.4,29.5,30.44,NW,323,2.3,2.3,89,0.00,CLR,,0.00,WeatherDisplay:10.37,2013-11-28 13:27:00,
2013-11-28 07:32:00,32.8,29.6,30.44,NNW,330,1.1,1.1,88,0.00,CLR,,0.00,WeatherDisplay:10.37,2013-11-28 13:32:00,
2013-11-28 07:37:00,33.1,29.7,30.44,NNW,330,1.1,0.0,87,0.00,CLR,,0.00,WeatherDisplay:10.37,2013-11-28 13:37:00,
2013-11-28 07:42:00,33.3,29.8,30.44,NNW,329,1.1,1.1,87,0.00,CLR,,0.00,WeatherDisplay:10.37,2013-11-28 13:42:00,
2013-11-28 07:47:00,33.6,30.1,30.44,North,349,1.1,1.1,87,0.00,CLR,,0.00,WeatherDisplay:10.37,2013-11-28 13:47:00,
2013-11-28 07:52:00,33.9,30.2,30.44,NE,37,1.1,1.1,86,0.00,CLR,,0.00,WeatherDisplay:10.37,2013-11-28 13:52:00,
2013-11-28 07:57:00,34.1,30.4,30.44,ESE,122,1.1,1.1,86,0.00,CLR,,0.00,WeatherDisplay:10.37,2013-11-28 13:57:00,
2013-11-28 08:02:00,33.9,30.4,30.44,SE,124,0.0,0.0,87,0.00,CLR,,0.00,WeatherDisplay:10.37,2013-11-28 14:02:00,
2013-11-28 08:07:00,33.9,30.7,30.45,SE,124,0.0,0.0,88,0.00,CLR,,0.00,WeatherDisplay:10.37,2013-11-28 14:07:00,
2013-11-28 08:12:00,34.0,31.1,30.44,SE,124,0.0,0.0,89,0.00,CLR,,0.00,WeatherDisplay:10.37,2013-11-28 14:12:00,
2013-11-28 08:17:00,34.1,31.5,30.45,SE,124,0.0,0.0,90,0.00,CLR,,0.00,WeatherDisplay:10.37,2013-11-28 14:17:00,
2013-11-28 08:22:00,34.2,31.6,30.45,North,4,2.3,2.3,90,0.00,CLR,,0.00,WeatherDisplay:10.37,2013-11-28 14:22:00,
2013-11-28 08:27:00,34.8,32.4,30.46,NW,325,2.3,2.3,91,0.00,CLR,,0.00,WeatherDisplay:10.37,2013-11-28 14:27:00,
2013-11-28 08:32:00,35.3,32.7,30.45,NNW,340,2.3,2.3,90,0.00,CLR,,0.00,WeatherDisplay:10.37,2013-11-28 14:32:00,
2013-11-28 08:37:00,35.6,33.0,30.46,WNW,302,1.1,0.0,90,0.00,CLR,,0.00,WeatherDisplay:10.37,2013-11-28 14:37:00,
2013-11-28 08:42:00,35.9,32.7,30.47,WNW,287,1.1,1.1,88,0.00,CLR,,0.00,WeatherDisplay:10.37,2013-11-28 14:42:00,
2013-11-28 08:47:00,36.2,32.7,30.47,NW,305,0.0,0.0,87,0.00,CLR,,0.00,WeatherDisplay:10.37,2013-11-28 14:47:00,
2013-11-28 08:52:00,36.5,32.7,30.47,NW,305,0.0,0.0,86,0.00,CLR,,0.00,WeatherDisplay:10.37,2013-11-28 14:52:00,
2013-11-28 08:57:00,36.9,33.1,30.47,NW,304,0.0,0.0,86,0.00,CLR,,0.00,WeatherDisplay:10.37,2013-11-28 14:57:00,
2013-11-28 09:02:00,37.3,33.5,30.47,NW,304,0.0,0.0,86,0.00,CLR,,0.00,WeatherDisplay:10.37,2013-11-28 15:02:00,
2013-11-28 09:07:00,37.5,33.1,30.48,NW,305,0.0,0.0,84,0.00,CLR,,0.00,WeatherDisplay:10.37,2013-11-28 15:07:00,
2013-11-28 09:12:00,37.7,33.0,30.47,NNW,346,1.1,1.1,83,0.00,CLR,,0.00,WeatherDisplay:10.37,2013-11-28 15:12:00,
2013-11-28 09:17:00,37.9,33.2,30.47,NNW,330,1.1,0.0,83,0.00,CLR,,0.00,WeatherDisplay:10.37,2013-11-28 15:17:00,
2013-11-28 09:22:00,38.0,33.3,30.47,NNW,330,0.0,0.0,83,0.00,CLR,,0.00,WeatherDisplay:10.37,2013-11-28 15:22:00,
2013-11-28 09:27:00,38.1,33.1,30.47,ENE,57,2.3,2.3,82,0.00,CLR,,0.00,WeatherDisplay:10.37,2013-11-28 15:27:00,
2013-11-28 09:32:00,38.2,32.9,30.47,ENE,58,0.0,0.0,81,0.00,CLR,,0.00,WeatherDisplay:10.37,2013-11-28 15:32:00,
2013-11-28 09:37:00,38.2,32.9,30.47,ENE,78,0.0,0.0,81,0.00,CLR,,0.00,WeatherDisplay:10.37,2013-11-28 15:37:00,
2013-11-28 09:42:00,38.2,32.9,30.47,ENE,77,0.0,0.0,81,0.00,CLR,,0.00,WeatherDisplay:10.37,2013-11-28 15:42:00,
2013-11-28 09:47:00,38.3,33.3,30.47,ENE,57,2.3,2.3,82,0.00,CLR,,0.00,WeatherDisplay:10.37,2013-11-28 15:47:00,
2013-11-28 09:52:00,38.6,33.0,30.47,East,92,1.1,0.0,80,0.00,CLR,,0.00,WeatherDisplay:10.37,2013-11-28 15:52:00,
2013-11-28 09:57:00,39.1,31.8,30.48,ESE,120,1.1,1.1,75,0.00,CLR,,0.00,WeatherDisplay:10.37,2013-11-28 15:57:00,
2013-11-28 10:02:00,40.0,32.7,30.48,ESE,105,0.0,0.4,75,0.00,CLR,,0.00,WeatherDisplay:10.37,2013-11-28 16:02:00,
2013-11-28 10:07:00,40.8,31.8,30.48,South,169,0.0,0.0,70,0.00,CLR,,0.00,WeatherDisplay:10.37,2013-11-28 16:07:00,
2013-11-28 10:12:00,41.9,32.1,30.48,SE,126,1.1,1.1,68,0.00,CLR,,0.00,WeatherDisplay:10.37,2013-11-28 16:12:00,
2013-11-28 10:17:00,42.0,30.7,30.48,ESE,123,3.5,3.5,64,0.00,CLR,,0.00,WeatherDisplay:10.37,2013-11-28 16:17:00,
2013-11-28 10:22:00,42.5,31.6,30.48,SSE,156,2.3,2.3,65,0.00,CLR,,0.00,WeatherDisplay:10.37,2013-11-28 16:22:00,
2013-11-28 10:27:00,43.0,31.6,30.48,NE,53,4.6,4.6,64,0.00,CLR,,0.00,WeatherDisplay:10.37,2013-11-28 16:27:00,
2013-11-28 10:32:00,43.2,30.2,30.47,ESE,106,3.5,3.5,60,0.00,CLR,,0.00,WeatherDisplay:10.37,2013-11-28 16:32:00,
2013-11-28 10:37:00,43.5,30.5,30.47,SSE,151,3.5,3.5,60,0.00,CLR,,0.00,WeatherDisplay:10.37,2013-11-28 16:37:00,
2013-11-28 10:42:00,44.0,30.6,30.47,ESE,117,4.6,4.6,59,0.00,CLR,,0.00,WeatherDisplay:10.37,2013-11-28 16:42:00,
2013-11-28 10:47:00,44.5,31.9,30.48,SE,143,2.3,2.3,61,0.00,CLR,,0.00,WeatherDisplay:10.37,2013-11-28 16:47:00,
2013-11-28 10:52:00,45.1,30.3,30.47,SSE,159,4.6,4.6,56,0.00,CLR,,0.00,WeatherDisplay:10.37,2013-11-28 16:52:00,
2013-11-28 10:57:00,45.3,29.6,30.47,SE,124,4.6,4.6,54,0.00,CLR,,0.00,WeatherDisplay:10.37,2013-11-28 16:57:00,
2013-11-28 11:02:00,45.3,30.1,30.47,ESE,113,3.5,3.5,55,0.00,CLR,,0.00,WeatherDisplay:10.37,2013-11-28 17:02:00,
2013-11-28 11:07:00,45.6,29.9,30.47,SW,218,3.5,3.5,54,0.00,CLR,,0.00,WeatherDisplay:10.37,2013-11-28 17:07:00,
2013-11-28 11:12:00,46.2,30.0,30.46,SSW,197,4.6,4.6,53,0.00,CLR,,0.00,WeatherDisplay:10.37,2013-11-28 17:12:00,
2013-11-28 11:17:00,46.7,30.0,30.46,SE,131,5.8,5.8,52,0.00,CLR,,0.00,WeatherDisplay:10.37,2013-11-28 17:17:00,
2013-11-28 11:22:00,47.0,29.3,30.46,ESE,117,5.0,5.0,50,0.00,CLR,,0.00,WeatherDisplay:10.37,2013-11-28 17:22:00,
2013-11-28 11:27:00,47.2,29.5,30.46,SE,136,3.5,3.5,50,0.00,CLR,,0.00,WeatherDisplay:10.37,2013-11-28 17:27:00,
2013-11-28 11:32:00,47.5,27.7,30.46,East,100,3.0,3.0,46,0.00,CLR,,0.00,WeatherDisplay:10.37,2013-11-28 17:32:00,
2013-11-28 11:37:00,47.2,26.9,30.46,ESE,115,3.5,3.5,45,0.00,CLR,,0.00,WeatherDisplay:10.37,2013-11-28 17:37:00,
2013-11-28 11:42:00,47.6,27.3,30.45,SE,128,4.6,4.6,45,0.00,CLR,,0.00,WeatherDisplay:10.37,2013-11-28 17:42:00,
2013-11-28 11:47:00,47.9,28.1,30.45,SSE,154,3.5,3.5,46,0.00,CLR,,0.00,WeatherDisplay:10.37,2013-11-28 17:47:00,
2013-11-28 11:52:00,48.0,28.2,30.45,NE,51,3.5,3.5,46,0.00,CLR,,0.00,WeatherDisplay:10.37,2013-11-28 17:52:00,
2013-11-28 11:57:00,47.9,28.1,30.45,ENE,70,6.0,6.0,46,0.00,CLR,,0.00,WeatherDisplay:10.37,2013-11-28 17:57:00,
2013-11-28 12:02:00,48.2,29.4,30.44,ENE,62,3.0,3.0,48,0.00,CLR,,0.00,WeatherDisplay:10.37,2013-11-28 18:02:00,
2013-11-28 12:07:00,48.2,28.4,30.44,East,91,2.3,2.3,46,0.00,CLR,,0.00,WeatherDisplay:10.37,2013-11-28 18:07:00,
2013-11-28 12:12:00,48.5,28.6,30.44,WSW,250,0.0,0.2,46,0.00,CLR,,0.00,WeatherDisplay:10.37,2013-11-28 18:12:00,
2013-11-28 12:17:00,49.3,28.8,30.43,SE,143,4.6,4.6,45,0.00,CLR,,0.00,WeatherDisplay:10.37,2013-11-28 18:17:00,
2013-11-28 12:22:00,49.9,29.4,30.43,SW,232,1.1,1.1,45,0.00,CLR,,0.00,WeatherDisplay:10.37,2013-11-28 18:22:00,
2013-11-28 12:27:00,50.0,28.9,30.43,SSE,151,2.3,2.3,44,0.00,CLR,,0.00,WeatherDisplay:10.37,2013-11-28 18:27:00,
2013-11-28 12:32:00,50.3,28.1,30.43,ESE,102,3.5,3.5,42,0.00,CLR,,0.00,WeatherDisplay:10.37,2013-11-28 18:32:00,
2013-11-28 12:37:00,50.1,27.9,30.43,SE,138,1.1,0.0,42,0.00,CLR,,0.00,WeatherDisplay:10.37,2013-11-28 18:37:00,
2013-11-28 12:42:00,50.2,27.4,30.42,ESE,120,2.3,2.3,41,0.00,CLR,,0.00,WeatherDisplay:10.37,2013-11-28 18:42:00,
2013-11-28 12:47:00,49.8,27.0,30.42,East,89,2.3,2.3,41,0.00,CLR,,0.00,WeatherDisplay:10.37,2013-11-28 18:47:00,
2013-11-28 12:52:00,49.9,27.1,30.42,SE,141,1.0,1.0,41,0.00,CLR,,0.00,WeatherDisplay:10.37,2013-11-28 18:52:00,
2013-11-28 12:57:00,50.4,27.6,30.42,ENE,61,3.5,3.5,41,0.00,CLR,,0.00,WeatherDisplay:10.37,2013-11-28 18:57:00,
2013-11-28 13:02:00,50.3,26.9,30.41,SE,127,2.3,2.3,40,0.00,CLR,,0.00,WeatherDisplay:10.37,2013-11-28 19:02:00,
2013-11-28 13:07:00,50.8,27.3,30.40,South,184,0.0,0.0,40,0.00,CLR,,0.00,WeatherDisplay:10.37,2013-11-28 19:07:00,
2013-11-28 13:12:00,51.1,26.3,30.40,ESE,105,3.5,3.5,38,0.00,CLR,,0.00,WeatherDisplay:10.37,2013-11-28 19:12:00,
2013-11-28 13:17:00,51.3,26.5,30.40,SSE,150,4.6,4.6,38,0.00,CLR,,0.00,WeatherDisplay:10.37,2013-11-28 19:17:00,
2013-11-28 13:22:00,51.2,26.4,30.40,East,95,3.5,3.5,38,0.00,CLR,,0.00,WeatherDisplay:10.37,2013-11-28 19:22:00,
2013-11-28 13:27:00,51.4,26.0,30.39,ESE,122,3.5,3.5,37,0.00,CLR,,0.00,WeatherDisplay:10.37,2013-11-28 19:27:00,
2013-11-28 13:32:00,52.0,26.5,30.39,SSE,166,6.9,6.9,37,0.00,CLR,,0.00,WeatherDisplay:10.37,2013-11-28 19:32:00,
2013-11-28 13:37:00,52.1,24.6,30.39,SSW,211,4.0,4.0,34,0.00,CLR,,0.00,WeatherDisplay:10.37,2013-11-28 19:37:00,
2013-11-28 13:42:00,52.4,26.2,30.38,SSE,160,11.5,11.5,36,0.00,CLR,,0.00,WeatherDisplay:10.37,2013-11-28 19:42:00,
2013-11-28 13:47:00,53.0,26.7,30.38,East,82,4.6,4.6,36,0.00,CLR,,0.00,WeatherDisplay:10.37,2013-11-28 19:47:00,
2013-11-28 13:52:00,53.0,26.0,30.39,SSE,158,3.5,3.5,35,0.00,CLR,,0.00,WeatherDisplay:10.37,2013-11-28 19:52:00,
2013-11-28 13:57:00,53.7,26.7,30.38,SW,226,4.6,4.6,35,0.00,CLR,,0.00,WeatherDisplay:10.37,2013-11-28 19:57:00,
2013-11-28 14:02:00,53.1,25.4,30.38,SW,236,3.5,3.5,34,0.00,CLR,,0.00,WeatherDisplay:10.37,2013-11-28 20:02:00,
2013-11-28 14:07:00,53.4,26.4,30.38,South,183,3.5,3.5,35,0.00,CLR,,0.00,WeatherDisplay:10.37,2013-11-28 20:07:00,
2013-11-28 14:12:00,53.9,26.1,30.38,ESE,103,1.1,1.1,34,0.00,CLR,,0.00,WeatherDisplay:10.37,2013-11-28 20:12:00,
2013-11-28 14:17:00,53.5,25.8,30.37,ESE,104,3.5,3.5,34,0.00,CLR,,0.00,WeatherDisplay:10.37,2013-11-28 20:17:00,
2013-11-28 14:22:00,53.3,26.3,30.37,ENE,65,3.5,3.5,35,0.00,CLR,,0.00,WeatherDisplay:10.37,2013-11-28 20:22:00,
2013-11-28 14:27:00,53.0,26.0,30.38,East,86,4.6,4.6,35,0.00,CLR,,0.00,WeatherDisplay:10.37,2013-11-28 20:27:00,
2013-11-28 14:32:00,53.4,27.1,30.38,SSW,197,3.5,3.5,36,0.00,CLR,,0.00,WeatherDisplay:10.37,2013-11-28 20:32:00,
2013-11-28 14:37:00,53.9,26.1,30.37,NNE,17,3.5,3.5,34,0.00,CLR,,0.00,WeatherDisplay:10.37,2013-11-28 20:37:00,
2013-11-28 14:42:00,54.3,27.2,30.37,NE,56,3.5,3.6,35,0.00,CLR,,0.00,WeatherDisplay:10.37,2013-11-28 20:42:00,
2013-11-28 14:47:00,54.1,27.7,30.37,East,79,4.6,4.6,36,0.00,CLR,,0.00,WeatherDisplay:10.37,2013-11-28 20:47:00,
2013-11-28 14:52:00,54.7,27.6,30.37,SE,146,2.3,2.3,35,0.00,CLR,,0.00,WeatherDisplay:10.37,2013-11-28 20:52:00,
2013-11-28 14:57:00,55.1,27.9,30.37,North,10,1.0,1.0,35,0.00,CLR,,0.00,WeatherDisplay:10.37,2013-11-28 20:57:00,
2013-11-28 15:02:00,54.9,25.6,30.37,East,84,1.1,1.1,32,0.00,CLR,,0.00,WeatherDisplay:10.37,2013-11-28 21:02:00,
2013-11-28 15:07:00,54.7,26.8,30.37,SSE,163,3.5,3.5,34,0.00,CLR,,0.00,WeatherDisplay:10.37,2013-11-28 21:07:00,
2013-11-28 15:12:00,55.1,27.9,30.36,ESE,112,6.0,6.0,35,0.00,CLR,,0.00,WeatherDisplay:10.37,2013-11-28 21:12:00,
2013-11-28 15:17:00,54.7,26.1,30.37,SSW,200,2.3,2.3,33,0.00,CLR,,0.00,WeatherDisplay:10.37,2013-11-28 21:17:00,
2013-11-28 15:22:00,55.2,26.6,30.37,East,89,2.3,2.3,33,0.00,CLR,,0.00,WeatherDisplay:10.37,2013-11-28 21:22:00,
2013-11-28 15:27:00,55.0,24.9,30.37,East,82,5.8,5.8,31,0.00,CLR,,0.00,WeatherDisplay:10.37,2013-11-28 21:27:00,
2013-11-28 15:32:00,54.9,24.8,30.37,ESE,103,3.5,3.5,31,0.00,CLR,,0.00,WeatherDisplay:10.37,2013-11-28 21:32:00,
2013-11-28 15:37:00,55.1,25.0,30.37,NE,46,3.5,3.5,31,0.00,CLR,,0.00,WeatherDisplay:10.37,2013-11-28 21:37:00,
2013-11-28 15:42:00,55.5,26.1,30.37,East,80,0.0,0.0,32,0.00,CLR,,0.00,WeatherDisplay:10.37,2013-11-28 21:42:00,
2013-11-28 15:47:00,55.5,26.1,30.36,East,91,6.0,6.0,32,0.00,CLR,,0.00,WeatherDisplay:10.37,2013-11-28 21:47:00,
2013-11-28 15:52:00,55.1,24.2,30.36,SE,127,2.3,2.3,30,0.00,CLR,,0.00,WeatherDisplay:10.37,2013-11-28 21:52:00,
2013-11-28 15:57:00,55.6,24.6,30.36,East,79,3.0,3.0,30,0.00,CLR,,0.00,WeatherDisplay:10.37,2013-11-28 21:57:00,
2013-11-28 16:02:00,55.2,23.5,30.36,SE,134,3.5,3.5,29,0.00,CLR,,0.00,WeatherDisplay:10.37,2013-11-28 22:02:00,
2013-11-28 16:07:00,55.2,25.1,30.37,East,100,2.3,2.3,31,0.00,CLR,,0.00,WeatherDisplay:10.37,2013-11-28 22:07:00,
2013-11-28 16:12:00,55.4,26.0,30.37,East,95,1.1,1.1,32,0.00,CLR,,0.00,WeatherDisplay:10.37,2013-11-28 22:12:00,
2013-11-28 16:17:00,55.7,26.3,30.37,ESE,103,5.0,5.0,32,0.00,CLR,,0.00,WeatherDisplay:10.37,2013-11-28 22:17:00,
2013-11-28 16:22:00,55.3,25.1,30.37,ESE,103,3.5,3.5,31,0.00,CLR,,0.00,WeatherDisplay:10.37,2013-11-28 22:22:00,
2013-11-28 16:27:00,55.2,25.1,30.37,ESE,106,4.6,4.6,31,0.00,CLR,,0.00,WeatherDisplay:10.37,2013-11-28 22:27:00,
2013-11-28 16:32:00,55.1,24.2,30.37,ESE,102,3.5,3.5,30,0.00,CLR,,0.00,WeatherDisplay:10.37,2013-11-28 22:32:00,
2013-11-28 16:37:00,55.1,25.7,30.37,ESE,102,3.5,3.5,32,0.00,CLR,,0.00,WeatherDisplay:10.37,2013-11-28 22:37:00,
2013-11-28 16:42:00,55.0,25.6,30.37,East,101,3.5,3.5,32,0.00,CLR,,0.00,WeatherDisplay:10.37,2013-11-28 22:42:00,
2013-11-28 16:47:00,55.0,26.4,30.37,SE,126,1.1,1.1,33,0.00,CLR,,0.00,WeatherDisplay:10.37,2013-11-28 22:47:00,
2013-11-28 16:52:00,54.9,26.3,30.37,East,89,3.5,3.5,33,0.00,CLR,,0.00,WeatherDisplay:10.37,2013-11-28 22:52:00,
2013-11-28 16:57:00,54.8,27.6,30.38,ENE,58,1.1,1.1,35,0.00,CLR,,0.00,WeatherDisplay:10.37,2013-11-28 22:57:00,
2013-11-28 17:02:00,54.6,28.8,30.38,ENE,77,1.1,0.0,37,0.00,CLR,,0.00,WeatherDisplay:10.37,2013-11-28 23:02:00,
2013-11-28 17:07:00,54.5,28.1,30.38,East,83,2.3,2.3,36,0.00,CLR,,0.00,WeatherDisplay:10.37,2013-11-28 23:07:00,
2013-11-28 17:12:00,54.3,27.9,30.38,East,82,0.0,0.0,36,0.00,CLR,,0.00,WeatherDisplay:10.37,2013-11-28 23:12:00,
2013-11-28 17:17:00,54.0,27.6,30.38,East,83,0.0,0.0,36,0.00,CLR,,0.00,WeatherDisplay:10.37,2013-11-28 23:17:00,
2013-11-28 17:22:00,53.6,27.3,30.38,ENE,68,2.3,2.3,36,0.00,CLR,,0.00,WeatherDisplay:10.37,2013-11-28 23:22:00,
2013-11-28 17:27:00,53.2,27.6,30.38,ENE,69,2.3,2.3,37,0.00,CLR,,0.00,WeatherDisplay:10.37,2013-11-28 23:27:00,
2013-11-28 17:32:00,52.5,27.6,30.38,ENE,67,3.5,3.5,38,0.00,CLR,,0.00,WeatherDisplay:10.37,2013-11-28 23:32:00,
2013-11-28 17:37:00,52.1,27.9,30.38,ENE,65,2.3,2.3,39,0.00,CLR,,0.00,WeatherDisplay:10.37,2013-11-28 23:37:00,
2013-11-28 17:42:00,51.7,27.5,30.38,ENE,67,3.5,3.5,39,0.00,CLR,,0.00,WeatherDisplay:10.37,2013-11-28 23:42:00,
2013-11-28 17:47:00,51.3,27.8,30.38,ENE,72,3.5,3.5,40,0.00,CLR,,0.00,WeatherDisplay:10.37,2013-11-28 23:47:00,
2013-11-28 17:52:00,50.9,27.4,30.39,East,79,2.3,2.3,40,0.00,CLR,,0.00,WeatherDisplay:10.37,2013-11-28 23:52:00,
2013-11-28 17:57:00,50.5,27.0,30.39,ENE,78,1.1,1.1,40,0.00,CLR,,0.00,WeatherDisplay:10.37,2013-11-28 23:57:00,
2013-11-28 18:02:00,50.3,26.9,30.39,ENE,76,2.3,2.3,40,0.00,CLR,,0.00,WeatherDisplay:10.37,2013-11-29 00:02:00,
2013-11-28 18:07:00,50.1,26.7,30.39,East,89,0.0,0.0,40,0.00,CLR,,0.00,WeatherDisplay:10.37,2013-11-29 00:07:00,
2013-11-28 18:12:00,49.7,26.9,30.40,East,80,0.0,0.0,41,0.00,CLR,,0.00,WeatherDisplay:10.37,2013-11-29 00:12:00,
2013-11-28 18:17:00,49.5,26.7,30.40,East,82,0.0,0.0,41,0.00,CLR,,0.00,WeatherDisplay:10.37,2013-11-29 00:17:00,
2013-11-28 18:22:00,49.5,27.3,30.40,ENE,69,0.0,0.0,42,0.00,CLR,,0.00,WeatherDisplay:10.37,2013-11-29 00:22:00,
2013-11-28 18:27:00,49.3,27.2,30.40,ENE,62,2.3,2.3,42,0.00,CLR,,0.00,WeatherDisplay:10.37,2013-11-29 00:27:00,
2013-11-28 18:32:00,49.1,27.0,30.40,ENE,69,2.3,2.3,42,0.00,CLR,,0.00,WeatherDisplay:10.37,2013-11-29 00:32:00,
2013-11-28 18:37:00,49.0,26.9,30.40,ENE,62,3.5,3.5,42,0.00,CLR,,0.00,WeatherDisplay:10.37,2013-11-29 00:37:00,
2013-11-28 18:42:00,48.8,27.3,30.41,ENE,63,2.3,2.3,43,0.00,CLR,,0.00,WeatherDisplay:10.37,2013-11-29 00:42:00,
2013-11-28 18:47:00,48.8,27.3,30.41,ENE,63,3.5,3.5,43,0.00,CLR,,0.00,WeatherDisplay:10.37,2013-11-29 00:47:00,
2013-11-28 18:52:00,48.7,27.7,30.41,ENE,76,2.3,2.3,44,0.00,CLR,,0.00,WeatherDisplay:10.37,2013-11-29 00:52:00,
2013-11-28 18:57:00,48.5,27.6,30.41,ENE,65,2.3,2.3,44,0.00,CLR,,0.00,WeatherDisplay:10.37,2013-11-29 00:57:00,
2013-11-28 19:02:00,48.1,27.2,30.41,ENE,63,2.3,2.3,44,0.00,CLR,,0.00,WeatherDisplay:10.37,2013-11-29 01:02:00,
2013-11-28 19:07:00,48.0,27.1,30.41,ENE,60,2.3,2.3,44,0.00,CLR,,0.00,WeatherDisplay:10.37,2013-11-29 01:07:00,
2013-11-28 19:12:00,47.9,27.6,30.42,ENE,66,2.3,2.3,45,0.00,CLR,,0.00,WeatherDisplay:10.37,2013-11-29 01:12:00,
2013-11-28 19:17:00,47.7,27.4,30.42,East,79,2.3,2.3,45,0.00,CLR,,0.00,WeatherDisplay:10.37,2013-11-29 01:17:00,
2013-11-28 19:22:00,47.3,27.5,30.42,East,79,0.0,0.0,46,0.00,CLR,,0.00,WeatherDisplay:10.37,2013-11-29 01:22:00,
2013-11-28 19:27:00,46.7,27.5,30.42,ENE,69,1.1,1.1,47,0.00,CLR,,0.00,WeatherDisplay:10.37,2013-11-29 01:27:00,
2013-11-28 19:32:00,46.6,27.9,30.42,ENE,65,3.5,3.5,48,0.00,CLR,,0.00,WeatherDisplay:10.37,2013-11-29 01:32:00,
2013-11-28 19:37:00,46.6,27.9,30.42,ENE,66,2.3,2.3,48,0.00,CLR,,0.00,WeatherDisplay:10.37,2013-11-29 01:37:00,
2013-11-28 19:42:00,46.5,27.8,30.42,ENE,70,1.1,1.1,48,0.00,CLR,,0.00,WeatherDisplay:10.37,2013-11-29 01:42:00,
2013-11-28 19:47:00,46.3,28.2,30.42,ENE,69,0.0,0.0,49,0.00,CLR,,0.00,WeatherDisplay:10.37,2013-11-29 01:47:00,
2013-11-28 19:52:00,45.9,27.8,30.42,ENE,71,0.0,0.0,49,0.00,CLR,,0.00,WeatherDisplay:10.37,2013-11-29 01:52:00,
2013-11-28 19:57:00,45.7,28.1,30.42,ENE,69,0.0,0.0,50,0.00,CLR,,0.00,WeatherDisplay:10.37,2013-11-29 01:57:00,
2013-11-28 20:02:00,45.5,28.4,30.43,ENE,77,0.0,0.0,51,0.00,CLR,,0.00,WeatherDisplay:10.37,2013-11-29 02:02:00,
2013-11-28 20:07:00,45.1,28.5,30.43,ENE,76,0.0,0.0,52,0.00,CLR,,0.00,WeatherDisplay:10.37,2013-11-29 02:07:00,
2013-11-28 20:12:00,44.8,28.7,30.43,East,79,0.0,0.0,53,0.00,CLR,,0.00,WeatherDisplay:10.37,2013-11-29 02:12:00,
2013-11-28 20:17:00,44.6,29.0,30.43,East,80,0.0,0.0,54,0.00,CLR,,0.00,WeatherDisplay:10.37,2013-11-29 02:17:00,
2013-11-28 20:22:00,44.3,29.1,30.43,East,80,0.0,0.0,55,0.00,CLR,,0.00,WeatherDisplay:10.37,2013-11-29 02:22:00,
2013-11-28 20:27:00,44.3,29.1,30.43,ENE,60,0.0,0.0,55,0.00,CLR,,0.00,WeatherDisplay:10.37,2013-11-29 02:27:00,
2013-11-28 20:32:00,44.4,28.8,30.44,ENE,73,0.0,0.0,54,0.00,CLR,,0.00,WeatherDisplay:10.37,2013-11-29 02:32:00,
2013-11-28 20:37:00,44.5,28.9,30.44,ENE,68,0.0,0.0,54,0.00,CLR,,0.00,WeatherDisplay:10.37,2013-11-29 02:37:00,
2013-11-28 20:42:00,44.4,28.8,30.44,ENE,77,0.0,0.0,54,0.00,CLR,,0.00,WeatherDisplay:10.37,2013-11-29 02:42:00,
2013-11-28 20:47:00,44.2,28.6,30.44,ENE,70,0.0,0.0,54,0.00,CLR,,0.00,WeatherDisplay:10.37,2013-11-29 02:47:00,
2013-11-28 20:52:00,44.1,28.5,30.44,ENE,70,0.0,0.0,54,0.00,CLR,,0.00,WeatherDisplay:10.37,2013-11-29 02:52:00,
2013-11-28 20:57:00,44.0,28.4,30.44,ENE,72,0.0,0.0,54,0.00,CLR,,0.00,WeatherDisplay:10.37,2013-11-29 02:57:00,
2013-11-28 21:02:00,43.8,28.2,30.44,ENE,72,0.0,0.0,54,0.00,CLR,,0.00,WeatherDisplay:10.37,2013-11-29 03:02:00,
2013-11-28 21:07:00,43.7,28.6,30.44,ENE,72,0.0,0.0,55,0.00,CLR,,0.00,WeatherDisplay:10.37,2013-11-29 03:07:00,
2013-11-28 21:12:00,43.6,28.0,30.44,ENE,72,0.0,0.0,54,0.00,CLR,,0.00,WeatherDisplay:10.37,2013-11-29 03:12:00,
2013-11-28 21:17:00,43.2,28.1,30.45,ENE,72,0.0,0.0,55,0.00,CLR,,0.00,WeatherDisplay:10.37,2013-11-29 03:17:00,
2013-11-28 21:22:00,42.9,28.7,30.45,ENE,72,0.0,0.0,57,0.00,CLR,,0.00,WeatherDisplay:10.37,2013-11-29 03:22:00,
2013-11-28 21:27:00,42.4,28.7,30.45,ENE,72,0.0,0.0,58,0.00,CLR,,0.00,WeatherDisplay:10.37,2013-11-29 03:27:00,
2013-11-28 21:32:00,42.3,28.6,30.45,ENE,72,0.0,0.0,58,0.00,CLR,,0.00,WeatherDisplay:10.37,2013-11-29 03:32:00,
2013-11-28 21:37:00,42.4,28.7,30.45,ENE,72,0.0,0.0,58,0.00,CLR,,0.00,WeatherDisplay:10.37,2013-11-29 03:37:00,
2013-11-28 21:42:00,42.4,28.2,30.45,ENE,77,0.0,0.0,57,0.00,CLR,,0.00,WeatherDisplay:10.37,2013-11-29 03:42:00,
2013-11-28 21:47:00,42.5,28.3,30.45,East,91,0.0,0.0,57,0.00,CLR,,0.00,WeatherDisplay:10.37,2013-11-29 03:47:00,
2013-11-28 21:52:00,42.6,28.4,30.45,East,82,0.0,0.0,57,0.00,CLR,,0.00,WeatherDisplay:10.37,2013-11-29 03:52:00,
2013-11-28 21:57:00,42.6,28.4,30.45,East,82,0.0,0.0,57,0.00,CLR,,0.00,WeatherDisplay:10.37,2013-11-29 03:57:00,
2013-11-28 22:02:00,42.4,28.7,30.46,East,82,0.0,0.0,58,0.00,CLR,,0.00,WeatherDisplay:10.37,2013-11-29 04:02:00,
2013-11-28 22:07:00,42.2,28.5,30.45,ENE,69,0.0,0.0,58,0.00,CLR,,0.00,WeatherDisplay:10.37,2013-11-29 04:07:00,
2013-11-28 22:12:00,42.2,28.5,30.46,ENE,73,0.0,0.0,58,0.00,CLR,,0.00,WeatherDisplay:10.37,2013-11-29 04:12:00,
2013-11-28 22:17:00,42.2,28.5,30.46,NE,49,2.3,2.3,58,0.00,CLR,,0.00,WeatherDisplay:10.37,2013-11-29 04:17:00,
2013-11-28 22:22:00,42.4,28.2,30.46,ENE,74,2.3,2.3,57,0.00,CLR,,0.00,WeatherDisplay:10.37,2013-11-29 04:22:00,
2013-11-28 22:27:00,42.2,28.9,30.46,ENE,67,2.3,2.3,59,0.00,CLR,,0.00,WeatherDisplay:10.37,2013-11-29 04:27:00,
2013-11-28 22:32:00,41.9,29.0,30.46,ENE,67,0.0,0.0,60,0.00,CLR,,0.00,WeatherDisplay:10.37,2013-11-29 04:32:00,
2013-11-28 22:37:00,41.9,28.6,30.46,ENE,67,1.1,0.0,59,0.00,CLR,,0.00,WeatherDisplay:10.37,2013-11-29 04:37:00,
2013-11-28 22:42:00,41.7,28.8,30.46,ENE,64,0.0,0.3,60,0.00,CLR,,0.00,WeatherDisplay:10.37,2013-11-29 04:42:00,
2013-11-28 22:47:00,41.5,29.0,30.46,ENE,64,0.0,0.0,61,0.00,CLR,,0.00,WeatherDisplay:10.37,2013-11-29 04:47:00,
2013-11-28 22:52:00,41.5,29.0,30.46,NE,51,0.0,0.0,61,0.00,CLR,,0.00,WeatherDisplay:10.37,2013-11-29 04:52:00,
2013-11-28 22:57:00,41.5,29.0,30.46,ENE,72,0.0,0.0,61,0.00,CLR,,0.00,WeatherDisplay:10.37,2013-11-29 04:57:00,
2013-11-28 23:01:00,41.1,29.5,30.46,ENE,72,0.0,0.0,63,0.00,CLR,,0.00,WeatherDisplay:10.37,2013-11-29 05:01:00,
2013-11-28 23:06:00,40.7,29.5,30.46,ENE,67,0.0,0.0,64,0.00,CLR,,0.00,WeatherDisplay:10.37,2013-11-29 05:06:00,
2013-11-28 23:11:00,40.8,29.2,30.46,ENE,67,0.0,0.0,63,0.00,CLR,,0.00,WeatherDisplay:10.37,2013-11-29 05:11:00,
2013-11-28 23:16:00,40.9,28.9,30.46,ENE,70,0.0,0.0,62,0.00,CLR,,0.00,WeatherDisplay:10.37,2013-11-29 05:16:00,
2013-11-28 23:21:00,41.1,29.1,30.46,ENE,66,0.0,0.0,62,0.00,CLR,,0.00,WeatherDisplay:10.37,2013-11-29 05:21:00,
2013-11-28 23:26:00,40.9,28.9,30.46,ENE,69,0.0,0.0,62,0.00,CLR,,0.00,WeatherDisplay:10.37,2013-11-29 05:26:00,
2013-11-28 23:31:00,41.1,29.1,30.46,NE,43,0.0,0.0,62,0.00,CLR,,0.00,WeatherDisplay:10.37,2013-11-29 05:31:00,
2013-11-28 23:36:00,41.2,29.2,30.46,NE,36,0.0,0.0,62,0.00,CLR,,0.00,WeatherDisplay:10.37,2013-11-29 05:36:00,
2013-11-28 23:41:00,41.1,29.1,30.46,ENE,58,0.0,0.0,62,0.00,CLR,,0.00,WeatherDisplay:10.37,2013-11-29 05:41:00,
2013-11-28 23:46:00,41.1,29.1,30.46,NNE,33,0.0,0.0,62,0.00,CLR,,0.00,WeatherDisplay:10.37,2013-11-29 05:46:00,
2013-11-28 23:51:00,41.1,29.1,30.46,NNE,23,1.1,1.1,62,0.00,CLR,,0.00,WeatherDisplay:10.37,2013-11-29 05:51:00,
2013-11-28 23:56:00,41.2,28.8,30.46,NE,43,1.1,1.1,61,0.00,CLR,,0.00,WeatherDisplay:10.37,2013-11-29 05:56:00,